sensor_id;sensor_type;location;lat;lon;timestamp;pressure;altitude;pressure_sealevel;temperature;humidity
7990;BME280;4040;42.848;23.034;2023-02-13T00:00:58;96584.56;;;-0.19;100.00
7990;BME280;4040;42.848;23.034;2023-02-13T00:11:09;96643.19;;;0.06;100.00
7990;BME280;4040;42.848;23.034;2023-02-13T00:16:59;96651.16;;;0.06;100.00
7990;BME280;4040;42.848;23.034;2023-02-13T00:22:48;96638.56;;;-0.02;100.00
7990;BME280;4040;42.848;23.034;2023-02-13T00:28:37;96653.09;;;0.01;100.00
7990;BME280;4040;42.848;23.034;2023-02-13T00:34:28;96646.00;;;-0.03;100.00
7990;BME280;4040;42.848;23.034;2023-02-13T00:40:17;96660.63;;;-0.06;100.00
7990;BME280;4040;42.848;23.034;2023-02-13T00:46:06;96658.25;;;-0.08;100.00
7990;BME280;4040;42.848;23.034;2023-02-13T00:51:56;96660.50;;;-0.14;100.00
7990;BME280;4040;42.848;23.034;2023-02-13T00:57:44;96664.22;;;-0.15;100.00
7990;BME280;4040;42.848;23.034;2023-02-13T01:03:34;96673.44;;;-0.31;100.00
7990;BME280;4040;42.848;23.034;2023-02-13T01:13:46;96682.91;;;-0.25;100.00
7990;BME280;4040;42.848;23.034;2023-02-13T01:19:35;96675.75;;;-0.43;100.00
7990;BME280;4040;42.848;23.034;2023-02-13T01:25:24;96670.00;;;-0.50;100.00
7990;BME280;4040;42.848;23.034;2023-02-13T01:31:15;96671.06;;;-0.33;100.00
7990;BME280;4040;42.848;23.034;2023-02-13T01:37:04;96668.44;;;-0.33;100.00
7990;BME280;4040;42.848;23.034;2023-02-13T01:42:53;96666.72;;;-0.42;100.00
7990;BME280;4040;42.848;23.034;2023-02-13T01:48:45;96678.09;;;-0.42;100.00
7990;BME280;4040;42.848;23.034;2023-02-13T01:54:35;96676.97;;;-0.54;100.00
7990;BME280;4040;42.848;23.034;2023-02-13T02:00:24;96661.00;;;-0.49;100.00
7990;BME280;4040;42.848;23.034;2023-02-13T02:06:18;96682.63;;;-0.42;100.00
7990;BME280;4040;42.848;23.034;2023-02-13T02:16:33;96674.59;;;-0.74;100.00
7990;BME280;4040;42.848;23.034;2023-02-13T02:23:05;96675.66;;;-0.75;100.00
7990;BME280;4040;42.848;23.034;2023-02-13T02:32:21;96680.13;;;-0.94;100.00
7990;BME280;4040;42.848;23.034;2023-02-13T02:38:34;96699.47;;;-0.75;100.00
7990;BME280;4040;42.848;23.034;2023-02-13T02:44:31;96694.44;;;-0.95;100.00
7990;BME280;4040;42.848;23.034;2023-02-13T02:50:28;96699.84;;;-1.05;100.00
7990;BME280;4040;42.848;23.034;2023-02-13T02:56:22;96704.00;;;-1.23;100.00
7990;BME280;4040;42.848;23.034;2023-02-13T03:02:14;96646.03;;;-1.66;100.00
7990;BME280;4040;42.848;23.034;2023-02-13T03:08:30;96704.78;;;-1.46;100.00
7990;BME280;4040;42.848;23.034;2023-02-13T03:18:58;96705.72;;;-1.65;100.00
7990;BME280;4040;42.848;23.034;2023-02-13T03:25:10;96705.81;;;-1.75;100.00
7990;BME280;4040;42.848;23.034;2023-02-13T03:31:05;96703.31;;;-1.90;100.00
7990;BME280;4040;42.848;23.034;2023-02-13T03:36:59;96699.91;;;-2.24;100.00
7990;BME280;4040;42.848;23.034;2023-02-13T03:43:11;96706.22;;;-2.25;100.00
7990;BME280;4040;42.848;23.034;2023-02-13T03:49:03;96684.72;;;-2.42;100.00
7990;BME280;4040;42.848;23.034;2023-02-13T03:55:13;96702.47;;;-2.57;100.00
7990;BME280;4040;42.848;23.034;2023-02-13T04:01:28;96693.91;;;-2.83;100.00
7990;BME280;4040;42.848;23.034;2023-02-13T04:07:20;96715.91;;;-2.59;100.00
7990;BME280;4040;42.848;23.034;2023-02-13T04:13:21;96726.56;;;-2.79;100.00
7990;BME280;4040;42.848;23.034;2023-02-13T04:19:14;96725.53;;;-2.83;100.00
7990;BME280;4040;42.848;23.034;2023-02-13T04:25:04;96720.31;;;-2.93;100.00
7990;BME280;4040;42.848;23.034;2023-02-13T04:30:53;96715.63;;;-3.11;100.00
7990;BME280;4040;42.848;23.034;2023-02-13T04:36:44;96720.94;;;-3.16;100.00
7990;BME280;4040;42.848;23.034;2023-02-13T04:42:32;96713.06;;;-3.31;100.00
7990;BME280;4040;42.848;23.034;2023-02-13T04:48:22;96714.13;;;-3.37;100.00
7990;BME280;4040;42.848;23.034;2023-02-13T04:54:12;96712.31;;;-3.51;100.00
7990;BME280;4040;42.848;23.034;2023-02-13T05:00:02;96722.28;;;-3.28;100.00
7990;BME280;4040;42.848;23.034;2023-02-13T05:05:51;96723.63;;;-3.46;100.00
7990;BME280;4040;42.848;23.034;2023-02-13T05:11:42;96726.28;;;-3.46;100.00
7990;BME280;4040;42.848;23.034;2023-02-13T05:21:52;96743.13;;;-3.42;100.00
7990;BME280;4040;42.848;23.034;2023-02-13T05:28:00;96739.69;;;-3.32;100.00
7990;BME280;4040;42.848;23.034;2023-02-13T05:33:49;96744.66;;;-3.31;100.00
7990;BME280;4040;42.848;23.034;2023-02-13T05:39:39;96747.31;;;-3.26;100.00
7990;BME280;4040;42.848;23.034;2023-02-13T05:45:29;96757.53;;;-3.09;100.00
7990;BME280;4040;42.848;23.034;2023-02-13T05:51:18;96763.28;;;-2.97;100.00
7990;BME280;4040;42.848;23.034;2023-02-13T05:57:08;96759.81;;;-2.83;100.00
7990;BME280;4040;42.848;23.034;2023-02-13T06:02:58;96769.19;;;-2.57;100.00
7990;BME280;4040;42.848;23.034;2023-02-13T06:08:47;96766.09;;;-2.21;100.00
7990;BME280;4040;42.848;23.034;2023-02-13T06:14:36;96771.25;;;-1.67;100.00
7990;BME280;4040;42.848;23.034;2023-02-13T06:24:48;96769.03;;;0.22;100.00
7990;BME280;4040;42.848;23.034;2023-02-13T06:30:37;96774.97;;;1.78;100.00
7990;BME280;4040;42.848;23.034;2023-02-13T06:36:26;96777.03;;;2.38;100.00
7990;BME280;4040;42.848;23.034;2023-02-13T06:42:17;96779.69;;;1.40;100.00
7990;BME280;4040;42.848;23.034;2023-02-13T06:48:07;96780.28;;;1.10;100.00
7990;BME280;4040;42.848;23.034;2023-02-13T06:53:55;96723.22;;;0.67;100.00
7990;BME280;4040;42.848;23.034;2023-02-13T06:59:46;96789.13;;;1.33;100.00
7990;BME280;4040;42.848;23.034;2023-02-13T07:05:35;96786.56;;;1.68;100.00
7990;BME280;4040;42.848;23.034;2023-02-13T07:11:27;96727.78;;;1.34;100.00
7990;BME280;4040;42.848;23.034;2023-02-13T07:17:17;96788.72;;;1.66;100.00
7990;BME280;4040;42.848;23.034;2023-02-13T07:27:28;96777.41;;;1.74;100.00
7990;BME280;4040;42.848;23.034;2023-02-13T07:33:18;96783.53;;;2.10;100.00
7990;BME280;4040;42.848;23.034;2023-02-13T07:39:08;96788.09;;;1.96;100.00
7990;BME280;4040;42.848;23.034;2023-02-13T07:44:57;96794.91;;;2.24;100.00
7990;BME280;4040;42.848;23.034;2023-02-13T07:50:47;96795.28;;;2.75;100.00
7990;BME280;4040;42.848;23.034;2023-02-13T07:56:36;96776.72;;;2.83;100.00
7990;BME280;4040;42.848;23.034;2023-02-13T08:02:25;96794.34;;;2.71;100.00
7990;BME280;4040;42.848;23.034;2023-02-13T08:08:16;96795.28;;;2.75;100.00
7990;BME280;4040;42.848;23.034;2023-02-13T08:14:05;96792.59;;;2.97;100.00
7990;BME280;4040;42.848;23.034;2023-02-13T08:19:54;96785.81;;;3.52;100.00
7990;BME280;4040;42.848;23.034;2023-02-13T08:30:08;96778.56;;;4.00;100.00
7990;BME280;4040;42.848;23.034;2023-02-13T08:35:57;96769.75;;;3.74;100.00
7990;BME280;4040;42.848;23.034;2023-02-13T08:41:46;96779.22;;;4.14;100.00
7990;BME280;4040;42.848;23.034;2023-02-13T08:47:36;96777.34;;;4.23;100.00
7990;BME280;4040;42.848;23.034;2023-02-13T08:53:26;96720.53;;;3.97;100.00
7990;BME280;4040;42.848;23.034;2023-02-13T08:59:15;96758.00;;;4.77;100.00
7990;BME280;4040;42.848;23.034;2023-02-13T09:05:06;96767.94;;;5.59;100.00
7990;BME280;4040;42.848;23.034;2023-02-13T09:10:56;96771.81;;;5.99;100.00
7990;BME280;4040;42.848;23.034;2023-02-13T09:16:45;96770.41;;;7.76;80.85
7990;BME280;4040;42.848;23.034;2023-02-13T09:22:36;96767.94;;;8.31;75.38
7990;BME280;4040;42.848;23.034;2023-02-13T09:32:48;96753.94;;;13.44;49.80
7990;BME280;4040;42.848;23.034;2023-02-13T09:38:39;96757.59;;;14.13;44.57
7990;BME280;4040;42.848;23.034;2023-02-13T09:44:33;96753.75;;;14.14;44.65
7990;BME280;4040;42.848;23.034;2023-02-13T09:50:28;96739.00;;;14.76;42.36
7990;BME280;4040;42.848;23.034;2023-02-13T09:56:31;96724.09;;;13.77;44.46
7990;BME280;4040;42.848;23.034;2023-02-13T10:02:52;96718.34;;;12.73;45.28
7990;BME280;4040;42.848;23.034;2023-02-13T10:08:53;96699.75;;;13.37;44.66
7990;BME280;4040;42.848;23.034;2023-02-13T10:14:54;96641.88;;;15.82;39.01
7990;BME280;4040;42.848;23.034;2023-02-13T10:20:47;96657.63;;;17.29;36.78
7990;BME280;4040;42.848;23.034;2023-02-13T10:26:40;96677.47;;;16.47;37.62
7990;BME280;4040;42.848;23.034;2023-02-13T10:32:42;96664.38;;;17.65;35.89
7990;BME280;4040;42.848;23.034;2023-02-13T10:38:37;96649.38;;;17.87;34.41
7990;BME280;4040;42.848;23.034;2023-02-13T10:44:44;96664.81;;;18.04;34.54
7990;BME280;4040;42.848;23.034;2023-02-13T10:50:42;96657.41;;;15.64;36.67
7990;BME280;4040;42.848;23.034;2023-02-13T10:56:37;96640.31;;;15.19;36.99
7990;BME280;4040;42.848;23.034;2023-02-13T11:02:30;96620.16;;;15.33;35.87
7990;BME280;4040;42.848;23.034;2023-02-13T11:08:24;96624.81;;;15.61;35.04
7990;BME280;4040;42.848;23.034;2023-02-13T11:14:16;96615.50;;;15.37;34.51
7990;BME280;4040;42.848;23.034;2023-02-13T11:20:20;96561.91;;;14.65;34.79
7990;BME280;4040;42.848;23.034;2023-02-13T11:26:14;96595.28;;;15.94;33.59
7990;BME280;4040;42.848;23.034;2023-02-13T11:32:09;96582.72;;;16.21;32.66
7990;BME280;4040;42.848;23.034;2023-02-13T11:38:12;96577.88;;;16.74;32.70
7990;BME280;4040;42.848;23.034;2023-02-13T11:44:04;96563.03;;;16.79;32.94
7990;BME280;4040;42.848;23.034;2023-02-13T11:49:53;96556.41;;;16.11;33.81
7990;BME280;4040;42.848;23.034;2023-02-13T11:56:00;96551.13;;;15.14;36.00
7990;BME280;4040;42.848;23.034;2023-02-13T12:02:01;96544.91;;;15.51;35.37
7990;BME280;4040;42.848;23.034;2023-02-13T12:07:50;96541.81;;;14.87;36.33
7990;BME280;4040;42.848;23.034;2023-02-13T12:13:39;96547.09;;;14.20;38.05
7990;BME280;4040;42.848;23.034;2023-02-13T12:19:34;96528.63;;;15.10;37.47
7990;BME280;4040;42.848;23.034;2023-02-13T12:25:42;96530.88;;;11.30;43.94
7990;BME280;4040;42.848;23.034;2023-02-13T12:36:00;96529.22;;;7.83;52.23
7990;BME280;4040;42.848;23.034;2023-02-13T12:41:58;96516.84;;;7.51;54.34
7990;BME280;4040;42.848;23.034;2023-02-13T12:48:02;96353.28;;;6.29;56.41
7990;BME280;4040;42.848;23.034;2023-02-13T12:54:07;96502.31;;;7.52;55.96
7990;BME280;4040;42.848;23.034;2023-02-13T13:00:21;96485.41;;;7.24;57.45
7990;BME280;4040;42.848;23.034;2023-02-13T13:06:25;96498.13;;;7.39;57.34
7990;BME280;4040;42.848;23.034;2023-02-13T13:12:36;96486.72;;;7.42;57.96
7990;BME280;4040;42.848;23.034;2023-02-13T13:18:38;96478.50;;;7.23;58.70
7990;BME280;4040;42.848;23.034;2023-02-13T13:24:41;96468.69;;;7.27;58.77
7990;BME280;4040;42.848;23.034;2023-02-13T13:30:38;96469.34;;;7.24;59.26
7990;BME280;4040;42.848;23.034;2023-02-13T13:36:36;96474.56;;;7.33;59.98
7990;BME280;4040;42.848;23.034;2023-02-13T13:42:37;96459.09;;;7.14;59.44
7990;BME280;4040;42.848;23.034;2023-02-13T13:48:41;96434.91;;;6.99;58.93
7990;BME280;4040;42.848;23.034;2023-02-13T13:54:35;96464.38;;;7.11;59.31
7990;BME280;4040;42.848;23.034;2023-02-13T14:00:28;96462.94;;;6.89;59.27
7990;BME280;4040;42.848;23.034;2023-02-13T14:06:22;96462.28;;;6.80;60.52
7990;BME280;4040;42.848;23.034;2023-02-13T14:12:35;96445.94;;;6.58;61.86
7990;BME280;4040;42.848;23.034;2023-02-13T14:18:26;96451.50;;;6.53;64.26
7990;BME280;4040;42.848;23.034;2023-02-13T14:24:18;96408.78;;;6.20;64.13
7990;BME280;4040;42.848;23.034;2023-02-13T14:30:25;96450.72;;;6.40;64.12
7990;BME280;4040;42.848;23.034;2023-02-13T14:36:20;96452.81;;;6.35;63.81
7990;BME280;4040;42.848;23.034;2023-02-13T14:42:25;96355.00;;;5.65;65.76
7990;BME280;4040;42.848;23.034;2023-02-13T14:48:15;96444.22;;;6.05;67.95
7990;BME280;4040;42.848;23.034;2023-02-13T14:54:12;96446.22;;;5.96;69.65
7990;BME280;4040;42.848;23.034;2023-02-13T15:00:17;96449.53;;;5.81;69.73
7990;BME280;4040;42.848;23.034;2023-02-13T15:06:13;96452.16;;;5.69;71.32
7990;BME280;4040;42.848;23.034;2023-02-13T15:12:26;96452.31;;;5.52;75.40
7990;BME280;4040;42.848;23.034;2023-02-13T15:18:18;96442.00;;;5.30;78.33
7990;BME280;4040;42.848;23.034;2023-02-13T15:24:12;96453.25;;;5.15;80.22
7990;BME280;4040;42.848;23.034;2023-02-13T15:30:18;96418.66;;;4.87;84.13
7990;BME280;4040;42.848;23.034;2023-02-13T15:36:16;96426.69;;;4.78;88.04
7990;BME280;4040;42.848;23.034;2023-02-13T15:42:06;96433.00;;;4.53;90.22
7990;BME280;4040;42.848;23.034;2023-02-13T15:47:57;96426.38;;;4.30;92.10
7990;BME280;4040;42.848;23.034;2023-02-13T15:53:51;96462.44;;;4.36;93.75
7990;BME280;4040;42.848;23.034;2023-02-13T15:59:41;96466.41;;;4.22;93.85
7990;BME280;4040;42.848;23.034;2023-02-13T16:05:33;96470.53;;;4.11;96.64
7990;BME280;4040;42.848;23.034;2023-02-13T16:11:32;96482.19;;;3.98;100.00
7990;BME280;4040;42.848;23.034;2023-02-13T16:17:26;96486.66;;;3.77;100.00
7990;BME280;4040;42.848;23.034;2023-02-13T16:23:18;96483.69;;;3.61;100.00
7990;BME280;4040;42.848;23.034;2023-02-13T16:29:14;96500.50;;;3.45;100.00
7990;BME280;4040;42.848;23.034;2023-02-13T16:35:25;96488.91;;;3.41;100.00
7990;BME280;4040;42.848;23.034;2023-02-13T16:41:31;96470.44;;;3.19;100.00
7990;BME280;4040;42.848;23.034;2023-02-13T16:47:23;96495.19;;;3.11;100.00
7990;BME280;4040;42.848;23.034;2023-02-13T16:53:15;96472.75;;;2.69;100.00
7990;BME280;4040;42.848;23.034;2023-02-13T16:59:13;96495.69;;;2.40;100.00
7990;BME280;4040;42.848;23.034;2023-02-13T17:05:18;96491.00;;;2.07;100.00
7990;BME280;4040;42.848;23.034;2023-02-13T17:11:16;96488.38;;;1.76;100.00
7990;BME280;4040;42.848;23.034;2023-02-13T17:17:10;96485.19;;;1.66;100.00
7990;BME280;4040;42.848;23.034;2023-02-13T17:23:03;96491.31;;;1.44;100.00
7990;BME280;4040;42.848;23.034;2023-02-13T17:28:52;96458.25;;;1.28;100.00
7990;BME280;4040;42.848;23.034;2023-02-13T17:31:20;96493.59;;;1.37;100.00
7990;BME280;4040;42.848;23.034;2023-02-13T17:37:15;96493.22;;;1.30;100.00
7990;BME280;4040;42.848;23.034;2023-02-13T17:43:06;96488.06;;;1.25;100.00
7990;BME280;4040;42.848;23.034;2023-02-13T17:48:55;96481.78;;;1.21;100.00
7990;BME280;4040;42.848;23.034;2023-02-13T17:54:44;96474.91;;;1.20;100.00
7990;BME280;4040;42.848;23.034;2023-02-13T18:00:34;96476.72;;;1.33;100.00
7990;BME280;4040;42.848;23.034;2023-02-13T18:06:23;96437.72;;;0.98;100.00
7990;BME280;4040;42.848;23.034;2023-02-13T18:12:13;96468.50;;;1.21;100.00
7990;BME280;4040;42.848;23.034;2023-02-13T18:18:04;96466.94;;;1.20;100.00
7990;BME280;4040;42.848;23.034;2023-02-13T18:23:53;96459.16;;;1.24;100.00
7990;BME280;4040;42.848;23.034;2023-02-13T18:29:42;96463.22;;;1.21;100.00
7990;BME280;4040;42.848;23.034;2023-02-13T18:35:33;96467.72;;;1.21;100.00
7990;BME280;4040;42.848;23.034;2023-02-13T18:41:23;96461.28;;;1.13;100.00
7990;BME280;4040;42.848;23.034;2023-02-13T18:47:12;96456.56;;;1.10;100.00
7990;BME280;4040;42.848;23.034;2023-02-13T18:53:02;96456.44;;;0.93;100.00
7990;BME280;4040;42.848;23.034;2023-02-13T18:58:51;96463.66;;;0.79;100.00
7990;BME280;4040;42.848;23.034;2023-02-13T19:04:40;96460.19;;;0.92;100.00
7990;BME280;4040;42.848;23.034;2023-02-13T19:10:31;96454.50;;;0.85;100.00
7990;BME280;4040;42.848;23.034;2023-02-13T19:16:20;96457.28;;;0.80;100.00
7990;BME280;4040;42.848;23.034;2023-02-13T19:22:09;96455.66;;;0.57;100.00
7990;BME280;4040;42.848;23.034;2023-02-13T19:28:00;96457.38;;;0.26;100.00
7990;BME280;4040;42.848;23.034;2023-02-13T19:38:11;96467.19;;;0.26;100.00
7990;BME280;4040;42.848;23.034;2023-02-13T19:44:02;96442.28;;;-0.13;100.00
7990;BME280;4040;42.848;23.034;2023-02-13T19:49:51;96452.88;;;-0.13;100.00
7990;BME280;4040;42.848;23.034;2023-02-13T19:55:40;96445.81;;;-0.04;100.00
7990;BME280;4040;42.848;23.034;2023-02-13T20:01:30;96429.13;;;-0.05;100.00
7990;BME280;4040;42.848;23.034;2023-02-13T20:07:19;96449.09;;;0.41;100.00
7990;BME280;4040;42.848;23.034;2023-02-13T20:13:08;96448.34;;;0.14;100.00
7990;BME280;4040;42.848;23.034;2023-02-13T20:19:00;96452.50;;;0.06;100.00
7990;BME280;4040;42.848;23.034;2023-02-13T20:24:52;96451.22;;;0.17;100.00
7990;BME280;4040;42.848;23.034;2023-02-13T20:30:42;96436.59;;;0.06;100.00
7990;BME280;4040;42.848;23.034;2023-02-13T20:40:54;96443.66;;;-0.03;100.00
7990;BME280;4040;42.848;23.034;2023-02-13T20:46:44;96448.56;;;-0.09;100.00
7990;BME280;4040;42.848;23.034;2023-02-13T20:58:23;96428.34;;;-0.32;100.00
7990;BME280;4040;42.848;23.034;2023-02-13T21:04:12;96426.84;;;-0.38;100.00
7990;BME280;4040;42.848;23.034;2023-02-13T21:10:05;96418.19;;;-0.57;100.00
7990;BME280;4040;42.848;23.034;2023-02-13T21:16:03;96411.66;;;-0.60;100.00
7990;BME280;4040;42.848;23.034;2023-02-13T21:21:52;96415.53;;;-0.84;100.00
7990;BME280;4040;42.848;23.034;2023-02-13T21:27:41;96418.81;;;-0.92;100.00
7990;BME280;4040;42.848;23.034;2023-02-13T21:33:31;96421.72;;;-1.07;100.00
7990;BME280;4040;42.848;23.034;2023-02-13T21:43:43;96404.13;;;-0.98;100.00
7990;BME280;4040;42.848;23.034;2023-02-13T21:49:35;96405.84;;;-1.07;100.00
7990;BME280;4040;42.848;23.034;2023-02-13T21:55:23;96401.13;;;-1.10;100.00
7990;BME280;4040;42.848;23.034;2023-02-13T22:01:16;96385.31;;;-0.97;100.00
7990;BME280;4040;42.848;23.034;2023-02-13T22:07:06;96380.53;;;-0.81;100.00
7990;BME280;4040;42.848;23.034;2023-02-13T22:12:55;96374.97;;;-0.80;100.00
7990;BME280;4040;42.848;23.034;2023-02-13T22:18:44;96366.72;;;-0.78;100.00
7990;BME280;4040;42.848;23.034;2023-02-13T22:24:36;96363.09;;;-0.82;100.00
7990;BME280;4040;42.848;23.034;2023-02-13T22:30:25;96353.16;;;-1.17;100.00
7990;BME280;4040;42.848;23.034;2023-02-13T22:36:15;96364.13;;;-1.10;100.00
7990;BME280;4040;42.848;23.034;2023-02-13T22:46:29;96361.25;;;-1.27;100.00
7990;BME280;4040;42.848;23.034;2023-02-13T22:52:18;96359.75;;;-1.33;100.00
7990;BME280;4040;42.848;23.034;2023-02-13T22:58:07;96365.94;;;-1.24;100.00
7990;BME280;4040;42.848;23.034;2023-02-13T23:08:27;96353.19;;;-1.54;100.00
7990;BME280;4040;42.848;23.034;2023-02-13T23:14:17;96349.34;;;-1.43;100.00
7990;BME280;4040;42.848;23.034;2023-02-13T23:20:07;96352.81;;;-0.97;100.00
7990;BME280;4040;42.848;23.034;2023-02-13T23:26:02;96349.13;;;-0.83;100.00
7990;BME280;4040;42.848;23.034;2023-02-13T23:31:51;96344.81;;;-0.65;100.00
7990;BME280;4040;42.848;23.034;2023-02-13T23:37:41;96348.13;;;-0.73;100.00
7990;BME280;4040;42.848;23.034;2023-02-13T23:43:31;96347.94;;;-0.63;100.00
7990;BME280;4040;42.848;23.034;2023-02-13T23:49:20;96345.41;;;-0.14;100.00
7990;BME280;4040;42.848;23.034;2023-02-13T23:55:09;96321.53;;;0.34;100.00
